createdAt,value
2023-11-28T00:01:46.799Z,3.93
2023-11-28T00:04:15.574Z,3.88
2023-11-28T00:06:43.722Z,3.91
2023-11-28T00:09:12.139Z,3.87
2023-11-28T00:11:40.159Z,3.77
2023-11-28T00:14:08.606Z,3.73
2023-11-28T00:16:36.730Z,3.49
2023-11-28T00:19:05.187Z,3.59
2023-11-28T00:21:33.310Z,3.56
2023-11-28T00:24:03.510Z,3.57
2023-11-28T00:26:31.808Z,3.64
2023-11-28T00:29:02.674Z,3.47
2023-11-28T00:31:31.561Z,3.55
2023-11-28T00:33:59.528Z,3.54
2023-11-28T00:36:29.004Z,3.58
2023-11-28T00:38:56.880Z,3.49
2023-11-28T00:41:26.790Z,3.29
2023-11-28T00:43:56.717Z,3.31
2023-11-28T00:46:25.091Z,3.27
2023-11-28T00:48:53.060Z,3.16
2023-11-28T00:51:24.060Z,3.24
2023-11-28T00:53:51.961Z,3.25
2023-11-28T00:56:21.601Z,3.27
2023-11-28T00:58:51.105Z,3.15
2023-11-28T01:01:19.578Z,3.31
2023-11-28T01:03:47.970Z,3.43
2023-11-28T01:06:16.944Z,3.32
2023-11-28T01:08:45.404Z,3.26
2023-11-28T01:11:13.672Z,3.26
2023-11-28T01:13:41.630Z,3.28
2023-11-28T01:16:11.618Z,3.33
2023-11-28T01:18:39.684Z,3.37
2023-11-28T01:21:09.195Z,3.38
2023-11-28T01:23:38.419Z,3.39
2023-11-28T01:26:07.124Z,3.45
2023-11-28T01:28:36.176Z,3.32
2023-11-28T01:31:06.437Z,3.35
2023-11-28T01:33:35.643Z,3.35
2023-11-28T01:36:07.872Z,3.37
2023-11-28T01:38:37.403Z,3.31
2023-11-28T01:41:08.548Z,3.51
2023-11-28T01:43:36.729Z,3.42
2023-11-28T01:46:08.986Z,3.43
2023-11-28T01:48:37.077Z,3.40
2023-11-28T01:51:07.822Z,3.25
2023-11-28T01:53:37.372Z,3.29
2023-11-28T01:56:06.455Z,3.46
2023-11-28T01:58:34.759Z,3.34
2023-11-28T02:01:03.003Z,3.29
2023-11-28T02:03:32.573Z,3.32
2023-11-28T02:06:01.456Z,3.26
2023-11-28T02:08:29.411Z,3.25
2023-11-28T02:10:57.785Z,3.37
2023-11-28T02:13:26.137Z,3.29
2023-11-28T02:15:56.139Z,3.27
2023-11-28T02:18:24.104Z,3.22
2023-11-28T02:20:53.773Z,3.30
2023-11-28T02:23:21.918Z,3.34
2023-11-28T02:25:52.506Z,3.28
2023-11-28T02:28:25.930Z,3.26
2023-11-28T02:30:56.969Z,3.29
2023-11-28T02:33:25.594Z,3.25
2023-11-28T02:35:53.851Z,3.19
2023-11-28T02:38:22.174Z,3.33
2023-11-28T02:40:51.172Z,3.33
2023-11-28T02:43:19.157Z,3.30
2023-11-28T02:45:47.474Z,3.34
2023-11-28T02:48:15.507Z,3.36
2023-11-28T02:50:44.047Z,3.42
2023-11-28T02:53:12.491Z,3.38
2023-11-28T02:55:40.866Z,3.47
2023-11-28T02:58:08.927Z,3.35
2023-11-28T03:00:37.287Z,3.39
2023-11-28T03:03:05.616Z,3.31
2023-11-28T03:05:33.964Z,3.44
2023-11-28T03:08:01.856Z,3.31
2023-11-28T03:10:30.209Z,3.42
2023-11-28T03:12:58.333Z,3.39
2023-11-28T03:15:26.554Z,3.39
2023-11-28T03:17:54.633Z,3.28
2023-11-28T03:20:24.093Z,3.42
2023-11-28T03:22:54.958Z,3.45
2023-11-28T03:25:23.090Z,3.45
2023-11-28T03:27:51.131Z,3.42
2023-11-28T03:30:19.415Z,3.54
2023-11-28T03:32:47.620Z,3.52
2023-11-28T03:35:16.971Z,3.55
2023-11-28T03:37:48.036Z,3.54
2023-11-28T03:40:16.860Z,3.47
2023-11-28T03:42:45.084Z,3.46
2023-11-28T03:45:16.429Z,3.58
2023-11-28T03:47:44.371Z,3.46
2023-11-28T03:50:12.821Z,3.45
2023-11-28T03:52:42.502Z,3.51
2023-11-28T03:55:11.590Z,3.44
2023-11-28T03:57:39.797Z,3.56
2023-11-28T04:00:12.153Z,3.39
2023-11-28T04:02:40.403Z,3.46
2023-11-28T04:05:10.281Z,3.54
2023-11-28T04:07:38.896Z,3.62
2023-11-28T04:10:09.709Z,3.56
2023-11-28T04:12:37.760Z,3.49
2023-11-28T04:15:05.887Z,3.62
2023-11-28T04:17:33.963Z,3.63
2023-11-28T04:20:02.561Z,3.58
2023-11-28T04:22:31.091Z,3.60
2023-11-28T04:25:00.517Z,3.66
2023-11-28T04:27:28.626Z,3.57
2023-11-28T04:29:57.103Z,3.67
2023-11-28T04:32:26.175Z,3.59
2023-11-28T04:34:54.745Z,3.61
2023-11-28T04:37:22.844Z,3.63
2023-11-28T04:39:54.301Z,3.58
2023-11-28T04:42:22.499Z,3.60
2023-11-28T04:44:50.640Z,3.71
2023-11-28T04:47:19.030Z,3.77
2023-11-28T04:49:47.372Z,3.78
2023-11-28T04:52:15.505Z,3.65
2023-11-28T04:54:44.802Z,3.71
2023-11-28T04:57:13.515Z,3.63
2023-11-28T04:59:41.649Z,3.64
2023-11-28T05:02:10.954Z,3.65
2023-11-28T05:04:39.612Z,3.56
2023-11-28T05:07:08.231Z,3.67
2023-11-28T05:09:44.381Z,3.64
2023-11-28T05:12:12.733Z,3.40
2023-11-28T05:14:41.549Z,3.40
2023-11-28T05:17:10.086Z,3.58
2023-11-28T05:19:38.424Z,3.66
2023-11-28T05:22:06.809Z,3.70
2023-11-28T05:24:34.753Z,3.71
2023-11-28T05:27:02.959Z,3.74
2023-11-28T05:29:31.959Z,3.80
2023-11-28T05:32:01.019Z,3.74
2023-11-28T05:34:29.389Z,3.78
2023-11-28T05:36:59.982Z,3.71
2023-11-28T05:39:29.240Z,3.77
2023-11-28T05:42:00.230Z,3.73
2023-11-28T05:44:28.235Z,3.72
2023-11-28T05:46:56.933Z,3.67
2023-11-28T05:49:26.299Z,3.74
2023-11-28T05:51:54.710Z,3.69
2023-11-28T05:54:22.705Z,3.73
2023-11-28T05:56:50.746Z,3.77
2023-11-28T05:59:19.275Z,3.85
2023-11-28T06:02:02.004Z,3.81
2023-11-28T06:04:31.229Z,3.78
2023-11-28T06:07:01.866Z,3.76
2023-11-28T06:09:29.961Z,3.75
2023-11-28T06:12:03.387Z,3.76
2023-11-28T06:14:35.303Z,3.88
2023-11-28T06:17:04.279Z,3.78
2023-11-28T06:19:33.413Z,3.78
2023-11-28T06:22:01.738Z,3.72
2023-11-28T06:24:29.785Z,3.84
2023-11-28T06:26:58.158Z,3.86
2023-11-28T06:29:26.199Z,3.80
2023-11-28T06:31:54.681Z,3.84
2023-11-28T06:34:22.697Z,3.80
2023-11-28T06:36:51.468Z,3.85
2023-11-28T06:39:25.126Z,3.88
2023-11-28T06:41:53.431Z,3.88
2023-11-28T06:44:22.478Z,3.97
2023-11-28T06:46:50.924Z,3.89
2023-11-28T06:49:21.435Z,3.83
2023-11-28T06:51:49.723Z,3.89
2023-11-28T06:54:18.246Z,3.97
2023-11-28T06:56:46.876Z,3.85
2023-11-28T06:59:15.704Z,3.78
2023-11-28T07:01:45.216Z,3.84
2023-11-28T07:04:14.133Z,3.93
2023-11-28T07:06:42.160Z,3.93
2023-11-28T07:09:11.525Z,4.00
2023-11-28T07:11:39.984Z,3.91
2023-11-28T07:14:09.407Z,3.87
2023-11-28T07:16:37.757Z,3.90
2023-11-28T07:19:06.182Z,3.96
2023-11-28T07:21:34.528Z,4.05
2023-11-28T07:24:03.377Z,4.00
2023-11-28T07:26:31.686Z,4.10
2023-11-28T07:28:59.733Z,4.13
2023-11-28T07:31:30.948Z,4.19
2023-11-28T07:33:59.357Z,4.24
2023-11-28T07:36:27.381Z,4.19
2023-11-28T07:38:55.474Z,4.24
2023-11-28T07:41:23.775Z,4.21
2023-11-28T07:43:53.022Z,4.03
2023-11-28T07:46:21.271Z,4.24
2023-11-28T07:48:49.777Z,4.33
2023-11-28T07:51:17.829Z,4.30
2023-11-28T07:53:46.593Z,4.38
2023-11-28T07:56:15.598Z,4.30
2023-11-28T07:58:43.650Z,4.18
2023-11-28T08:01:12.852Z,4.23
2023-11-28T08:03:41.045Z,4.37
2023-11-28T08:06:09.689Z,4.26
2023-11-28T08:08:37.997Z,4.45
2023-11-28T08:11:08.950Z,4.42
2023-11-28T08:13:37.012Z,4.42
2023-11-28T08:16:05.474Z,4.48
2023-11-28T08:18:37.445Z,4.46
2023-11-28T08:21:08.603Z,4.38
2023-11-28T08:23:36.810Z,4.41
2023-11-28T08:26:05.126Z,4.24
2023-11-28T08:28:33.431Z,4.42
2023-11-28T08:31:01.698Z,4.57
2023-11-28T08:33:29.846Z,4.47
2023-11-28T08:35:57.964Z,4.46
2023-11-28T08:38:26.769Z,4.50
2023-11-28T08:40:54.950Z,4.60
2023-11-28T08:43:22.956Z,4.68
2023-11-28T08:45:52.424Z,4.81
2023-11-28T08:48:21.458Z,4.92
2023-11-28T08:50:49.872Z,5.04
2023-11-28T08:53:18.157Z,4.83
2023-11-28T08:55:46.307Z,5.07
2023-11-28T08:58:14.707Z,5.02
2023-11-28T09:00:42.773Z,5.05
2023-11-28T09:03:10.857Z,5.08
2023-11-28T09:05:38.990Z,5.04
2023-11-28T09:08:08.034Z,5.13
2023-11-28T09:10:36.178Z,4.98
2023-11-28T09:13:04.224Z,5.05
2023-11-28T09:15:32.219Z,5.13
2023-11-28T09:18:00.327Z,5.09
2023-11-28T09:20:28.377Z,5.20
2023-11-28T09:22:56.243Z,5.16
2023-11-28T09:25:24.833Z,5.22
2023-11-28T09:27:52.943Z,5.00
2023-11-28T09:30:20.992Z,5.08
2023-11-28T09:32:50.078Z,5.10
2023-11-28T09:35:19.143Z,5.07
2023-11-28T09:37:47.396Z,5.01
2023-11-28T09:40:15.526Z,4.80
2023-11-28T09:42:45.834Z,4.80
2023-11-28T09:45:15.403Z,4.87
2023-11-28T09:47:45.633Z,4.73
2023-11-28T09:50:16.220Z,4.63
2023-11-28T09:52:47.529Z,4.82
2023-11-28T09:55:16.935Z,4.95
2023-11-28T09:57:49.473Z,5.00
2023-11-28T10:00:22.109Z,5.13
2023-11-28T10:02:53.432Z,4.96
2023-11-28T10:05:22.106Z,4.97
2023-11-28T10:07:54.336Z,5.15
2023-11-28T10:10:23.866Z,4.73
2023-11-28T10:12:53.417Z,4.54
2023-11-28T10:15:22.875Z,5.06
2023-11-28T10:17:51.121Z,5.25
2023-11-28T10:20:21.523Z,4.81
2023-11-28T10:22:54.036Z,5.19
2023-11-28T10:25:25.824Z,5.00
2023-11-28T10:28:00.216Z,5.12
2023-11-28T10:30:29.368Z,5.32
2023-11-28T10:33:00.487Z,4.96
2023-11-28T10:35:44.273Z,5.12
2023-11-28T10:38:16.479Z,4.72
2023-11-28T10:40:49.833Z,4.86
2023-11-28T10:43:19.170Z,4.90
2023-11-28T10:45:47.903Z,5.18
2023-11-28T10:48:16.001Z,4.69
2023-11-28T10:50:44.773Z,4.60
2023-11-28T10:53:17.147Z,4.80
2023-11-28T10:55:58.334Z,5.08
2023-11-28T10:58:29.660Z,5.05
2023-11-28T11:01:04.113Z,5.08
2023-11-28T11:03:33.813Z,4.79
2023-11-28T11:06:01.978Z,5.09
2023-11-28T11:08:31.796Z,5.26
2023-11-28T11:11:00.485Z,5.19
2023-11-28T11:13:40.997Z,5.19
2023-11-28T11:16:24.779Z,5.41
2023-11-28T11:18:55.974Z,5.51
2023-11-28T11:22:02.753Z,5.52
2023-11-28T11:24:32.749Z,5.64
2023-11-28T11:27:02.533Z,5.37
2023-11-28T11:29:30.446Z,5.25
2023-11-28T11:31:59.641Z,5.22
2023-11-28T11:34:45.115Z,4.84
2023-11-28T11:37:19.697Z,5.28
2023-11-28T11:39:51.181Z,5.59
2023-11-28T11:42:20.409Z,5.58
2023-11-28T11:44:53.137Z,5.69
2023-11-28T11:47:22.960Z,5.71
2023-11-28T11:49:52.915Z,5.78
2023-11-28T11:52:25.921Z,5.75
2023-11-28T11:55:06.047Z,5.83
2023-11-28T11:57:34.309Z,5.50
2023-11-28T12:00:02.806Z,5.25
2023-11-28T12:02:46.198Z,5.31
2023-11-28T12:05:15.247Z,5.44
2023-11-28T12:07:44.757Z,5.50
2023-11-28T12:10:14.604Z,5.45
2023-11-28T12:12:43.103Z,5.20
2023-11-28T12:15:11.883Z,5.03
2023-11-28T12:17:41.571Z,5.20
2023-11-28T12:20:11.436Z,5.60
2023-11-28T12:22:40.872Z,5.24
2023-11-28T12:25:18.846Z,5.06
2023-11-28T12:27:47.922Z,5.20
2023-11-28T12:30:16.522Z,4.71
2023-11-28T12:32:45.127Z,4.59
2023-11-28T12:35:13.265Z,4.76
2023-11-28T12:37:41.241Z,5.16
2023-11-28T12:40:11.295Z,5.10
2023-11-28T12:42:46.778Z,5.11
2023-11-28T12:45:14.740Z,5.33
2023-11-28T12:47:43.067Z,5.05
2023-11-28T12:50:11.869Z,4.86
2023-11-28T12:52:43.678Z,4.88
2023-11-28T12:55:13.273Z,4.94
2023-11-28T12:57:41.312Z,5.06
2023-11-28T13:00:10.355Z,5.13
2023-11-28T13:02:39.041Z,4.82
2023-11-28T13:05:08.516Z,5.05
2023-11-28T13:07:42.105Z,5.31
2023-11-28T13:10:17.608Z,5.37
2023-11-28T13:12:45.576Z,4.97
2023-11-28T13:15:17.154Z,4.80
2023-11-28T13:17:45.422Z,4.70
2023-11-28T13:20:15.515Z,4.59
2023-11-28T13:22:44.748Z,4.95
2023-11-28T13:25:12.653Z,4.71
2023-11-28T13:27:40.676Z,4.71
2023-11-28T13:30:12.010Z,4.85
2023-11-28T13:32:41.261Z,4.82
2023-11-28T13:35:11.737Z,4.57
2023-11-28T13:37:40.045Z,4.66
2023-11-28T13:40:13.080Z,4.55
2023-11-28T13:42:41.038Z,4.71
2023-11-28T13:45:09.489Z,4.80
2023-11-28T13:47:37.498Z,4.53
2023-11-28T13:50:13.079Z,4.38
2023-11-28T13:52:41.754Z,4.57
2023-11-28T13:55:09.733Z,4.29
2023-11-28T13:57:37.876Z,4.47
2023-11-28T14:00:07.124Z,4.35
2023-11-28T14:02:43.723Z,4.64
2023-11-28T14:05:16.784Z,4.37
2023-11-28T14:07:46.929Z,4.46
2023-11-28T14:10:15.209Z,4.50
2023-11-28T14:12:43.259Z,4.31
2023-11-28T14:15:11.387Z,4.27
2023-11-28T14:17:39.684Z,4.22
2023-11-28T14:20:10.519Z,4.26
2023-11-28T14:22:44.543Z,4.21
2023-11-28T14:25:15.231Z,4.20
2023-11-28T14:27:44.582Z,4.04
2023-11-28T14:30:13.151Z,3.89
2023-11-28T14:32:42.150Z,3.87
2023-11-28T14:35:11.721Z,3.75
2023-11-28T14:37:40.007Z,3.66
2023-11-28T14:40:10.157Z,3.81
2023-11-28T14:42:39.706Z,3.88
2023-11-28T14:45:08.901Z,3.87
2023-11-28T14:47:40.217Z,3.90
2023-11-28T14:50:08.885Z,4.08
2023-11-28T14:52:37.308Z,4.16
2023-11-28T14:55:07.433Z,3.98
2023-11-28T14:57:35.937Z,3.96
2023-11-28T15:00:07.393Z,3.52
2023-11-28T15:02:36.258Z,3.70
2023-11-28T15:05:04.961Z,3.58
2023-11-28T15:07:33.007Z,3.66
2023-11-28T15:10:02.770Z,3.75
2023-11-28T15:12:30.969Z,3.91
2023-11-28T15:14:58.827Z,3.75
2023-11-28T15:17:28.411Z,3.86
2023-11-28T15:19:57.381Z,3.77
2023-11-28T15:22:27.740Z,3.98
2023-11-28T15:24:56.519Z,3.46
2023-11-28T15:27:25.050Z,3.17
2023-11-28T15:29:54.123Z,3.51
2023-11-28T15:32:24.005Z,3.37
2023-11-28T15:34:52.056Z,3.51
2023-11-28T15:37:20.213Z,3.15
2023-11-28T15:39:49.866Z,3.01
2023-11-28T15:42:20.631Z,3.16
2023-11-28T15:44:48.903Z,2.73
2023-11-28T15:47:16.983Z,2.78
2023-11-28T15:49:48.648Z,2.64
2023-11-28T15:52:19.563Z,2.73
2023-11-28T15:54:47.869Z,3.17
2023-11-28T15:57:15.835Z,2.82
2023-11-28T15:59:43.931Z,2.79
2023-11-28T16:02:12.620Z,2.56
2023-11-28T16:04:41.689Z,2.71
2023-11-28T16:07:10.265Z,2.85
2023-11-28T16:09:39.949Z,2.93
2023-11-28T16:12:09.055Z,2.79
2023-11-28T16:14:37.415Z,2.48
2023-11-28T16:17:05.708Z,2.80
2023-11-28T16:19:33.876Z,2.77
2023-11-28T16:22:01.977Z,2.73
2023-11-28T16:24:30.065Z,2.21
2023-11-28T16:26:58.074Z,2.53
2023-11-28T16:29:28.933Z,2.36
2023-11-28T16:31:57.054Z,2.46
2023-11-28T16:34:25.233Z,2.62
2023-11-28T16:36:53.402Z,2.54
2023-11-28T16:39:22.475Z,2.50
2023-11-28T16:41:50.730Z,2.27
2023-11-28T16:44:18.641Z,2.74
2023-11-28T16:46:47.103Z,2.11
2023-11-28T16:49:15.067Z,2.47
2023-11-28T16:51:43.093Z,2.51
2023-11-28T16:54:11.046Z,2.98
2023-11-28T16:56:40.240Z,2.38
2023-11-28T16:59:09.178Z,2.41
2023-11-28T17:01:37.305Z,2.68
2023-11-28T17:04:05.429Z,2.55
2023-11-28T17:06:33.470Z,2.43
2023-11-28T17:09:01.579Z,2.02
2023-11-28T17:11:30.392Z,2.45
2023-11-28T17:13:58.318Z,2.16
2023-11-28T17:16:26.855Z,2.10
2023-11-28T17:18:54.993Z,2.39
2023-11-28T17:21:23.775Z,2.50
2023-11-28T17:23:52.147Z,2.68
2023-11-28T17:26:20.201Z,2.48
2023-11-28T17:28:48.493Z,2.52
2023-11-28T17:31:17.001Z,2.29
2023-11-28T17:33:45.209Z,2.58
2023-11-28T17:36:13.251Z,2.32
2023-11-28T17:38:41.158Z,2.28
2023-11-28T17:41:17.063Z,2.54
2023-11-28T17:43:45.438Z,2.50
2023-11-28T17:46:17.967Z,2.28
2023-11-28T17:48:46.897Z,1.89
2023-11-28T17:51:22.104Z,1.85
2023-11-28T17:53:51.090Z,2.10
2023-11-28T17:56:19.781Z,1.92
2023-11-28T17:58:47.863Z,1.98
2023-11-28T18:01:16.062Z,2.14
2023-11-28T18:03:44.340Z,2.28
2023-11-28T18:06:12.680Z,2.01
2023-11-28T18:08:40.802Z,1.61
2023-11-28T18:11:11.375Z,1.84
2023-11-28T18:13:40.103Z,2.08
2023-11-28T18:16:08.534Z,1.69
2023-11-28T18:18:36.848Z,1.75
2023-11-28T18:21:15.058Z,1.77
2023-11-28T18:23:49.960Z,1.96
2023-11-28T18:26:18.298Z,1.60
2023-11-28T18:28:46.887Z,2.01
2023-11-28T18:31:15.801Z,1.63
2023-11-28T18:33:43.994Z,1.50
2023-11-28T18:36:14.743Z,1.85
2023-11-28T18:38:50.625Z,1.83
2023-11-28T18:41:23.286Z,1.56
2023-11-28T18:43:51.546Z,2.08
2023-11-28T18:46:21.779Z,1.72
2023-11-28T18:48:50.480Z,1.80
2023-11-28T18:51:19.437Z,1.29
2023-11-28T18:53:48.013Z,0.96
2023-11-28T18:56:20.762Z,1.28
2023-11-28T18:58:50.081Z,1.20
2023-11-28T19:01:19.502Z,1.83
2023-11-28T19:03:49.320Z,1.67
2023-11-28T19:06:18.652Z,1.44
2023-11-28T19:08:47.906Z,1.45
2023-11-28T19:11:20.702Z,1.37
2023-11-28T19:13:51.421Z,1.41
2023-11-28T19:16:25.871Z,1.62
2023-11-28T19:18:55.477Z,1.65
2023-11-28T19:21:23.967Z,1.89
2023-11-28T19:23:52.920Z,1.33
2023-11-28T19:26:22.613Z,1.40
2023-11-28T19:28:50.898Z,2.03
2023-11-28T19:31:19.928Z,1.71
2023-11-28T19:33:49.179Z,1.55
2023-11-28T19:36:17.485Z,1.68
2023-11-28T19:38:47.088Z,1.58
2023-11-28T19:41:16.688Z,1.52
2023-11-28T19:43:44.892Z,1.95
2023-11-28T19:46:14.431Z,1.67
2023-11-28T19:48:43.633Z,2.02
2023-11-28T19:51:12.915Z,1.70
2023-11-28T19:53:41.945Z,1.51
2023-11-28T19:56:10.355Z,1.48
2023-11-28T19:58:40.654Z,1.72
2023-11-28T20:01:09.794Z,1.61
2023-11-28T20:03:41.242Z,2.00
2023-11-28T20:06:09.179Z,1.91
2023-11-28T20:08:37.386Z,1.53
2023-11-28T20:11:05.597Z,1.76
2023-11-28T20:13:33.853Z,1.68
2023-11-28T20:16:03.296Z,2.05
2023-11-28T20:18:36.053Z,1.74
2023-11-28T20:21:07.020Z,1.72
2023-11-28T20:23:35.091Z,2.13
2023-11-28T20:26:03.707Z,1.79
2023-11-28T20:28:32.347Z,1.41
2023-11-28T20:31:01.430Z,1.30
2023-11-28T20:33:29.727Z,1.77
2023-11-28T20:35:57.878Z,2.05
2023-11-28T20:38:26.048Z,1.73
2023-11-28T20:40:54.117Z,1.54
2023-11-28T20:43:22.301Z,1.28
2023-11-28T20:45:50.253Z,1.54
2023-11-28T20:48:19.948Z,1.89
2023-11-28T20:50:48.051Z,1.61
2023-11-28T20:53:16.914Z,1.27
2023-11-28T20:55:45.867Z,1.73
2023-11-28T20:58:13.976Z,1.21
2023-11-28T21:00:42.082Z,1.84
2023-11-28T21:03:10.156Z,1.62
2023-11-28T21:05:39.432Z,1.93
2023-11-28T21:08:07.652Z,1.16
2023-11-28T21:10:36.016Z,1.82
2023-11-28T21:13:04.047Z,1.93
2023-11-28T21:15:33.196Z,2.07
2023-11-28T21:18:01.293Z,1.41
2023-11-28T21:20:29.783Z,1.73
2023-11-28T21:22:58.223Z,1.85
2023-11-28T21:25:27.018Z,1.86
2023-11-28T21:27:55.031Z,2.03
2023-11-28T21:30:23.214Z,1.72
2023-11-28T21:32:51.252Z,1.95
2023-11-28T21:35:19.556Z,1.99
2023-11-28T21:37:49.816Z,1.56
2023-11-28T21:40:19.470Z,1.98
2023-11-28T21:42:47.646Z,1.66
2023-11-28T21:45:17.521Z,1.28
2023-11-28T21:47:45.559Z,1.68
2023-11-28T21:50:18.999Z,1.86
2023-11-28T21:52:47.093Z,1.82
2023-11-28T21:55:15.533Z,1.33
2023-11-28T21:57:43.634Z,1.49
2023-11-28T22:00:12.169Z,1.87
2023-11-28T22:02:40.449Z,1.97
2023-11-28T22:05:09.255Z,1.81
2023-11-28T22:07:37.435Z,1.59
2023-11-28T22:10:07.385Z,1.61
2023-11-28T22:12:35.428Z,1.67
2023-11-28T22:15:06.298Z,1.36
2023-11-28T22:17:35.029Z,1.61
2023-11-28T22:20:04.292Z,1.76
2023-11-28T22:22:32.965Z,1.78
2023-11-28T22:25:01.198Z,1.73
2023-11-28T22:27:29.411Z,1.87
2023-11-28T22:29:57.647Z,1.98
2023-11-28T22:32:27.676Z,2.08
2023-11-28T22:34:56.075Z,1.83
2023-11-28T22:37:24.874Z,1.71
2023-11-28T22:39:53.050Z,1.92
2023-11-28T22:42:21.449Z,2.11
2023-11-28T22:44:49.968Z,1.87
2023-11-28T22:47:18.549Z,1.93
2023-11-28T22:49:46.899Z,1.99
2023-11-28T22:52:15.002Z,1.66
2023-11-28T22:54:43.402Z,1.88
2023-11-28T22:57:11.678Z,1.86
2023-11-28T22:59:43.597Z,1.78
2023-11-28T23:02:14.656Z,1.72
2023-11-28T23:04:45.282Z,1.78
2023-11-28T23:07:14.000Z,1.88
2023-11-28T23:09:43.145Z,1.81
2023-11-28T23:12:15.530Z,1.79
2023-11-28T23:14:43.911Z,1.85
2023-11-28T23:17:12.476Z,1.91
2023-11-28T23:19:40.438Z,1.98
2023-11-28T23:22:08.840Z,1.84
2023-11-28T23:24:37.258Z,1.76
2023-11-28T23:27:06.013Z,1.88
2023-11-28T23:29:35.855Z,1.90
2023-11-28T23:32:04.180Z,1.80
2023-11-28T23:34:32.381Z,1.89
2023-11-28T23:37:00.232Z,1.84
2023-11-28T23:39:32.510Z,1.83
2023-11-28T23:42:00.432Z,1.95
2023-11-28T23:44:28.585Z,1.79
2023-11-28T23:46:56.963Z,1.76
2023-11-28T23:49:25.134Z,1.69
2023-11-28T23:51:53.265Z,1.83
2023-11-28T23:54:21.434Z,1.61
2023-11-28T23:56:49.378Z,1.81
2023-11-28T23:59:17.497Z,1.87
